sensor_id;sensor_type;location;lat;lon;timestamp;temperature;humidity
9537;DHT22;4807;48.024;11.726;2023-06-24T00:02:54;15.30;99.90
9537;DHT22;4807;48.024;11.726;2023-06-24T00:06:04;15.30;99.90
9537;DHT22;4807;48.024;11.726;2023-06-24T00:09:13;15.30;99.90
9537;DHT22;4807;48.024;11.726;2023-06-24T00:12:21;15.40;99.90
9537;DHT22;4807;48.024;11.726;2023-06-24T00:15:29;15.40;99.90
9537;DHT22;4807;48.024;11.726;2023-06-24T00:18:37;15.40;99.90
9537;DHT22;4807;48.024;11.726;2023-06-24T00:21:50;15.30;99.90
9537;DHT22;4807;48.024;11.726;2023-06-24T00:25:00;15.30;99.90
9537;DHT22;4807;48.024;11.726;2023-06-24T00:28:08;15.30;99.90
9537;DHT22;4807;48.024;11.726;2023-06-24T00:31:16;15.30;99.90
9537;DHT22;4807;48.024;11.726;2023-06-24T00:34:25;15.30;99.90
9537;DHT22;4807;48.024;11.726;2023-06-24T00:37:34;15.20;99.90
9537;DHT22;4807;48.024;11.726;2023-06-24T00:40:43;15.30;99.90
9537;DHT22;4807;48.024;11.726;2023-06-24T00:43:54;15.50;99.90
9537;DHT22;4807;48.024;11.726;2023-06-24T00:47:05;15.30;99.90
9537;DHT22;4807;48.024;11.726;2023-06-24T00:50:15;15.20;99.90
9537;DHT22;4807;48.024;11.726;2023-06-24T00:53:25;15.30;99.90
9537;DHT22;4807;48.024;11.726;2023-06-24T00:56:34;15.30;99.90
9537;DHT22;4807;48.024;11.726;2023-06-24T00:59:46;15.30;99.90
9537;DHT22;4807;48.024;11.726;2023-06-24T01:02:57;15.20;99.90
9537;DHT22;4807;48.024;11.726;2023-06-24T01:06:06;15.20;99.90
9537;DHT22;4807;48.024;11.726;2023-06-24T01:09:17;15.20;99.90
9537;DHT22;4807;48.024;11.726;2023-06-24T01:12:26;15.20;99.90
9537;DHT22;4807;48.024;11.726;2023-06-24T01:15:35;15.20;99.90
9537;DHT22;4807;48.024;11.726;2023-06-24T01:18:47;15.10;99.90
9537;DHT22;4807;48.024;11.726;2023-06-24T01:22:09;15.10;99.90
9537;DHT22;4807;48.024;11.726;2023-06-24T01:25:48;15.10;99.90
9537;DHT22;4807;48.024;11.726;2023-06-24T01:29:37;15.00;99.90
9537;DHT22;4807;48.024;11.726;2023-06-24T01:32:59;15.00;99.90
9537;DHT22;4807;48.024;11.726;2023-06-24T01:36:12;14.90;99.90
9537;DHT22;4807;48.024;11.726;2023-06-24T01:39:24;15.00;99.90
9537;DHT22;4807;48.024;11.726;2023-06-24T01:42:37;15.00;99.90
9537;DHT22;4807;48.024;11.726;2023-06-24T01:45:49;15.00;99.90
9537;DHT22;4807;48.024;11.726;2023-06-24T01:49:03;14.90;99.90
9537;DHT22;4807;48.024;11.726;2023-06-24T01:52:16;15.00;99.90
9537;DHT22;4807;48.024;11.726;2023-06-24T01:55:28;14.90;99.90
9537;DHT22;4807;48.024;11.726;2023-06-24T01:58:40;14.90;99.90
9537;DHT22;4807;48.024;11.726;2023-06-24T02:01:51;14.90;99.90
9537;DHT22;4807;48.024;11.726;2023-06-24T02:05:03;14.80;99.90
9537;DHT22;4807;48.024;11.726;2023-06-24T02:08:17;14.80;99.90
9537;DHT22;4807;48.024;11.726;2023-06-24T02:11:29;14.70;99.90
9537;DHT22;4807;48.024;11.726;2023-06-24T02:14:39;14.70;99.90
9537;DHT22;4807;48.024;11.726;2023-06-24T02:17:51;14.70;99.90
9537;DHT22;4807;48.024;11.726;2023-06-24T02:21:05;14.70;99.90
9537;DHT22;4807;48.024;11.726;2023-06-24T02:24:14;14.60;99.90
9537;DHT22;4807;48.024;11.726;2023-06-24T02:27:24;14.60;99.90
9537;DHT22;4807;48.024;11.726;2023-06-24T02:30:34;14.60;99.90
9537;DHT22;4807;48.024;11.726;2023-06-24T02:33:43;14.60;99.90
9537;DHT22;4807;48.024;11.726;2023-06-24T02:36:53;14.60;99.90
9537;DHT22;4807;48.024;11.726;2023-06-24T02:40:02;14.60;99.90
9537;DHT22;4807;48.024;11.726;2023-06-24T02:43:13;14.60;99.90
9537;DHT22;4807;48.024;11.726;2023-06-24T02:46:22;14.60;99.90
9537;DHT22;4807;48.024;11.726;2023-06-24T02:49:37;14.60;99.90
9537;DHT22;4807;48.024;11.726;2023-06-24T02:52:48;14.60;99.90
9537;DHT22;4807;48.024;11.726;2023-06-24T02:55:59;14.50;99.90
9537;DHT22;4807;48.024;11.726;2023-06-24T02:59:10;14.50;99.90
9537;DHT22;4807;48.024;11.726;2023-06-24T03:02:19;14.50;99.90
9537;DHT22;4807;48.024;11.726;2023-06-24T03:05:30;14.50;99.90
9537;DHT22;4807;48.024;11.726;2023-06-24T03:08:42;14.50;99.90
9537;DHT22;4807;48.024;11.726;2023-06-24T03:11:50;14.50;99.90
9537;DHT22;4807;48.024;11.726;2023-06-24T03:15:10;14.50;99.90
9537;DHT22;4807;48.024;11.726;2023-06-24T03:18:20;14.50;99.90
9537;DHT22;4807;48.024;11.726;2023-06-24T03:21:28;14.50;99.90
9537;DHT22;4807;48.024;11.726;2023-06-24T03:24:47;14.60;99.90
9537;DHT22;4807;48.024;11.726;2023-06-24T03:27:56;14.60;99.90
9537;DHT22;4807;48.024;11.726;2023-06-24T03:31:04;14.60;99.90
9537;DHT22;4807;48.024;11.726;2023-06-24T03:34:13;14.60;99.90
9537;DHT22;4807;48.024;11.726;2023-06-24T03:37:24;14.50;99.90
9537;DHT22;4807;48.024;11.726;2023-06-24T03:40:34;14.50;99.90
9537;DHT22;4807;48.024;11.726;2023-06-24T03:43:42;14.50;99.90
9537;DHT22;4807;48.024;11.726;2023-06-24T03:46:52;14.50;99.90
9537;DHT22;4807;48.024;11.726;2023-06-24T03:50:00;14.50;99.90
9537;DHT22;4807;48.024;11.726;2023-06-24T03:53:09;14.60;99.90
9537;DHT22;4807;48.024;11.726;2023-06-24T03:56:19;14.70;99.90
9537;DHT22;4807;48.024;11.726;2023-06-24T03:59:27;14.80;99.90
9537;DHT22;4807;48.024;11.726;2023-06-24T04:02:35;14.90;99.90
9537;DHT22;4807;48.024;11.726;2023-06-24T04:05:44;14.90;99.90
9537;DHT22;4807;48.024;11.726;2023-06-24T04:08:52;15.00;99.90
9537;DHT22;4807;48.024;11.726;2023-06-24T04:12:04;15.00;99.90
9537;DHT22;4807;48.024;11.726;2023-06-24T04:15:14;15.10;99.90
9537;DHT22;4807;48.024;11.726;2023-06-24T04:18:23;15.10;99.90
9537;DHT22;4807;48.024;11.726;2023-06-24T04:21:33;15.20;99.90
9537;DHT22;4807;48.024;11.726;2023-06-24T04:24:41;15.20;99.90
9537;DHT22;4807;48.024;11.726;2023-06-24T04:27:51;15.30;99.90
9537;DHT22;4807;48.024;11.726;2023-06-24T04:30:59;15.30;99.90
9537;DHT22;4807;48.024;11.726;2023-06-24T04:34:08;15.10;99.90
9537;DHT22;4807;48.024;11.726;2023-06-24T04:37:21;15.50;99.90
9537;DHT22;4807;48.024;11.726;2023-06-24T04:40:32;15.70;99.90
9537;DHT22;4807;48.024;11.726;2023-06-24T04:43:41;15.70;99.90
9537;DHT22;4807;48.024;11.726;2023-06-24T04:46:50;15.70;99.90
9537;DHT22;4807;48.024;11.726;2023-06-24T04:49:59;15.80;99.90
9537;DHT22;4807;48.024;11.726;2023-06-24T04:53:07;15.90;99.90
9537;DHT22;4807;48.024;11.726;2023-06-24T04:56:16;16.20;99.90
9537;DHT22;4807;48.024;11.726;2023-06-24T04:59:27;16.30;99.90
9537;DHT22;4807;48.024;11.726;2023-06-24T05:02:36;16.50;99.90
9537;DHT22;4807;48.024;11.726;2023-06-24T05:05:44;16.60;99.90
9537;DHT22;4807;48.024;11.726;2023-06-24T05:08:53;16.80;99.90
9537;DHT22;4807;48.024;11.726;2023-06-24T05:12:03;16.90;99.90
9537;DHT22;4807;48.024;11.726;2023-06-24T05:15:15;17.20;99.90
9537;DHT22;4807;48.024;11.726;2023-06-24T05:18:23;17.50;99.90
9537;DHT22;4807;48.024;11.726;2023-06-24T05:21:33;17.70;99.90
9537;DHT22;4807;48.024;11.726;2023-06-24T05:24:43;18.00;99.90
9537;DHT22;4807;48.024;11.726;2023-06-24T05:27:52;18.20;99.90
9537;DHT22;4807;48.024;11.726;2023-06-24T05:31:03;18.50;99.50
9537;DHT22;4807;48.024;11.726;2023-06-24T05:34:14;18.60;98.60
9537;DHT22;4807;48.024;11.726;2023-06-24T05:37:23;18.80;98.30
9537;DHT22;4807;48.024;11.726;2023-06-24T05:40:33;18.90;97.60
9537;DHT22;4807;48.024;11.726;2023-06-24T05:43:43;19.00;97.30
9537;DHT22;4807;48.024;11.726;2023-06-24T05:46:53;19.00;97.20
9537;DHT22;4807;48.024;11.726;2023-06-24T05:50:03;19.10;97.10
9537;DHT22;4807;48.024;11.726;2023-06-24T05:53:12;19.30;97.00
9537;DHT22;4807;48.024;11.726;2023-06-24T05:56:21;19.60;96.80
9537;DHT22;4807;48.024;11.726;2023-06-24T05:59:30;19.50;95.80
9537;DHT22;4807;48.024;11.726;2023-06-24T06:02:41;19.30;95.60
9537;DHT22;4807;48.024;11.726;2023-06-24T06:05:50;19.30;95.90
9537;DHT22;4807;48.024;11.726;2023-06-24T06:08:59;19.50;95.70
9537;DHT22;4807;48.024;11.726;2023-06-24T06:12:09;19.70;95.50
9537;DHT22;4807;48.024;11.726;2023-06-24T06:15:19;19.90;94.40
9537;DHT22;4807;48.024;11.726;2023-06-24T06:18:29;19.80;94.00
9537;DHT22;4807;48.024;11.726;2023-06-24T06:21:39;19.90;94.90
9537;DHT22;4807;48.024;11.726;2023-06-24T06:24:48;20.30;94.50
9537;DHT22;4807;48.024;11.726;2023-06-24T06:27:56;19.00;92.60
9537;DHT22;4807;48.024;11.726;2023-06-24T06:31:05;20.90;93.00
9537;DHT22;4807;48.024;11.726;2023-06-24T06:34:15;21.20;92.00
9537;DHT22;4807;48.024;11.726;2023-06-24T06:37:23;21.40;91.60
9537;DHT22;4807;48.024;11.726;2023-06-24T06:40:33;21.10;91.20
9537;DHT22;4807;48.024;11.726;2023-06-24T06:43:42;20.70;92.70
9537;DHT22;4807;48.024;11.726;2023-06-24T06:46:51;20.80;92.90
9537;DHT22;4807;48.024;11.726;2023-06-24T06:50:02;20.80;92.30
9537;DHT22;4807;48.024;11.726;2023-06-24T06:53:10;21.00;92.40
9537;DHT22;4807;48.024;11.726;2023-06-24T06:56:24;21.10;92.00
9537;DHT22;4807;48.024;11.726;2023-06-24T06:59:33;21.30;91.60
9537;DHT22;4807;48.024;11.726;2023-06-24T07:02:42;21.00;90.70
9537;DHT22;4807;48.024;11.726;2023-06-24T07:05:53;20.80;91.70
9537;DHT22;4807;48.024;11.726;2023-06-24T07:09:01;20.80;91.60
9537;DHT22;4807;48.024;11.726;2023-06-24T07:12:11;20.20;91.30
9537;DHT22;4807;48.024;11.726;2023-06-24T07:15:20;20.20;91.60
9537;DHT22;4807;48.024;11.726;2023-06-24T07:18:29;19.90;91.30
9537;DHT22;4807;48.024;11.726;2023-06-24T07:21:41;19.40;92.40
9537;DHT22;4807;48.024;11.726;2023-06-24T07:24:49;21.10;90.30
9537;DHT22;4807;48.024;11.726;2023-06-24T07:27:58;21.00;90.50
9537;DHT22;4807;48.024;11.726;2023-06-24T07:31:07;22.10;86.20
9537;DHT22;4807;48.024;11.726;2023-06-24T07:34:15;23.60;83.00
9537;DHT22;4807;48.024;11.726;2023-06-24T07:40:36;24.10;78.40
9537;DHT22;4807;48.024;11.726;2023-06-24T07:43:57;24.70;75.10
9537;DHT22;4807;48.024;11.726;2023-06-24T07:47:06;25.70;77.00
9537;DHT22;4807;48.024;11.726;2023-06-24T07:50:15;27.60;67.50
9537;DHT22;4807;48.024;11.726;2023-06-24T07:53:24;29.20;60.20
9537;DHT22;4807;48.024;11.726;2023-06-24T07:56:36;28.10;57.90
9537;DHT22;4807;48.024;11.726;2023-06-24T07:59:47;26.60;61.10
9537;DHT22;4807;48.024;11.726;2023-06-24T08:02:56;26.00;65.20
9537;DHT22;4807;48.024;11.726;2023-06-24T08:06:06;25.60;66.80
9537;DHT22;4807;48.024;11.726;2023-06-24T08:09:15;25.20;68.10
9537;DHT22;4807;48.024;11.726;2023-06-24T08:12:26;25.30;66.90
9537;DHT22;4807;48.024;11.726;2023-06-24T08:15:35;24.80;67.40
9537;DHT22;4807;48.024;11.726;2023-06-24T08:18:49;25.00;68.10
9537;DHT22;4807;48.024;11.726;2023-06-24T08:21:57;24.50;67.70
9537;DHT22;4807;48.024;11.726;2023-06-24T08:25:07;25.60;63.80
9537;DHT22;4807;48.024;11.726;2023-06-24T08:28:18;25.60;64.50
9537;DHT22;4807;48.024;11.726;2023-06-24T08:31:27;24.80;68.80
9537;DHT22;4807;48.024;11.726;2023-06-24T08:34:36;24.50;67.90
9537;DHT22;4807;48.024;11.726;2023-06-24T08:37:44;23.80;69.40
9537;DHT22;4807;48.024;11.726;2023-06-24T08:40:53;23.60;70.30
9537;DHT22;4807;48.024;11.726;2023-06-24T08:44:03;23.20;70.60
9537;DHT22;4807;48.024;11.726;2023-06-24T08:47:12;22.90;71.10
9537;DHT22;4807;48.024;11.726;2023-06-24T08:50:23;22.50;72.40
9537;DHT22;4807;48.024;11.726;2023-06-24T08:53:36;22.50;71.30
9537;DHT22;4807;48.024;11.726;2023-06-24T08:56:47;22.80;72.90
9537;DHT22;4807;48.024;11.726;2023-06-24T08:59:57;22.50;73.10
9537;DHT22;4807;48.024;11.726;2023-06-24T09:03:06;22.70;76.20
9537;DHT22;4807;48.024;11.726;2023-06-24T09:06:14;24.30;72.40
9537;DHT22;4807;48.024;11.726;2023-06-24T09:09:23;26.00;62.70
9537;DHT22;4807;48.024;11.726;2023-06-24T09:12:32;27.10;59.20
9537;DHT22;4807;48.024;11.726;2023-06-24T09:15:43;27.60;59.20
9537;DHT22;4807;48.024;11.726;2023-06-24T09:18:52;28.80;57.70
9537;DHT22;4807;48.024;11.726;2023-06-24T09:22:02;29.00;59.80
9537;DHT22;4807;48.024;11.726;2023-06-24T09:25:16;29.50;54.90
9537;DHT22;4807;48.024;11.726;2023-06-24T09:28:26;29.70;54.50
9537;DHT22;4807;48.024;11.726;2023-06-24T09:31:37;28.90;55.60
9537;DHT22;4807;48.024;11.726;2023-06-24T09:34:55;24.10;61.40
9537;DHT22;4807;48.024;11.726;2023-06-24T09:38:03;23.90;62.50
9537;DHT22;4807;48.024;11.726;2023-06-24T09:41:12;22.60;69.20
9537;DHT22;4807;48.024;11.726;2023-06-24T09:44:22;22.70;69.80
9537;DHT22;4807;48.024;11.726;2023-06-24T09:47:32;23.00;68.30
9537;DHT22;4807;48.024;11.726;2023-06-24T09:50:40;22.60;67.60
9537;DHT22;4807;48.024;11.726;2023-06-24T09:53:52;22.50;73.60
9537;DHT22;4807;48.024;11.726;2023-06-24T09:57:05;23.70;67.60
9537;DHT22;4807;48.024;11.726;2023-06-24T10:00:19;24.20;65.20
9537;DHT22;4807;48.024;11.726;2023-06-24T10:03:33;23.60;67.10
9537;DHT22;4807;48.024;11.726;2023-06-24T10:06:44;23.80;69.30
9537;DHT22;4807;48.024;11.726;2023-06-24T10:09:54;23.60;65.00
9537;DHT22;4807;48.024;11.726;2023-06-24T10:13:04;22.80;68.90
9537;DHT22;4807;48.024;11.726;2023-06-24T10:16:13;22.90;72.40
9537;DHT22;4807;48.024;11.726;2023-06-24T10:19:24;22.50;68.80
9537;DHT22;4807;48.024;11.726;2023-06-24T10:22:32;22.10;70.80
9537;DHT22;4807;48.024;11.726;2023-06-24T10:25:47;21.50;68.60
9537;DHT22;4807;48.024;11.726;2023-06-24T10:29:12;21.20;71.10
9537;DHT22;4807;48.024;11.726;2023-06-24T10:32:24;21.20;73.60
9537;DHT22;4807;48.024;11.726;2023-06-24T10:35:35;21.40;75.70
9537;DHT22;4807;48.024;11.726;2023-06-24T10:38:55;21.90;71.50
9537;DHT22;4807;48.024;11.726;2023-06-24T10:42:36;22.60;67.60
9537;DHT22;4807;48.024;11.726;2023-06-24T10:45:49;22.80;68.90
9537;DHT22;4807;48.024;11.726;2023-06-24T10:48:58;22.80;67.00
9537;DHT22;4807;48.024;11.726;2023-06-24T10:52:09;22.80;65.30
9537;DHT22;4807;48.024;11.726;2023-06-24T10:55:18;21.50;65.10
9537;DHT22;4807;48.024;11.726;2023-06-24T10:58:26;22.20;68.00
9537;DHT22;4807;48.024;11.726;2023-06-24T11:01:35;22.30;68.90
9537;DHT22;4807;48.024;11.726;2023-06-24T11:05:01;21.90;66.70
9537;DHT22;4807;48.024;11.726;2023-06-24T11:08:12;21.90;67.30
9537;DHT22;4807;48.024;11.726;2023-06-24T11:11:21;22.00;71.60
9537;DHT22;4807;48.024;11.726;2023-06-24T11:14:29;22.20;71.30
9537;DHT22;4807;48.024;11.726;2023-06-24T11:17:41;22.20;71.20
9537;DHT22;4807;48.024;11.726;2023-06-24T11:20:54;22.40;69.90
9537;DHT22;4807;48.024;11.726;2023-06-24T11:24:04;22.40;71.00
9537;DHT22;4807;48.024;11.726;2023-06-24T11:27:14;22.30;67.80
9537;DHT22;4807;48.024;11.726;2023-06-24T11:30:23;22.30;68.40
9537;DHT22;4807;48.024;11.726;2023-06-24T11:33:32;22.80;65.40
9537;DHT22;4807;48.024;11.726;2023-06-24T11:36:41;23.20;63.50
9537;DHT22;4807;48.024;11.726;2023-06-24T11:40:02;23.50;62.40
9537;DHT22;4807;48.024;11.726;2023-06-24T11:43:12;23.80;66.00
9537;DHT22;4807;48.024;11.726;2023-06-24T11:46:21;24.40;66.80
9537;DHT22;4807;48.024;11.726;2023-06-24T11:49:29;24.80;62.50
9537;DHT22;4807;48.024;11.726;2023-06-24T11:52:43;25.00;63.20
9537;DHT22;4807;48.024;11.726;2023-06-24T11:55:57;25.00;61.00
9537;DHT22;4807;48.024;11.726;2023-06-24T11:59:06;25.30;56.50
9537;DHT22;4807;48.024;11.726;2023-06-24T12:02:15;25.10;56.20
9537;DHT22;4807;48.024;11.726;2023-06-24T12:05:24;25.00;57.60
9537;DHT22;4807;48.024;11.726;2023-06-24T12:08:35;24.40;56.70
9537;DHT22;4807;48.024;11.726;2023-06-24T12:11:59;23.80;57.70
9537;DHT22;4807;48.024;11.726;2023-06-24T12:15:09;23.80;59.80
9537;DHT22;4807;48.024;11.726;2023-06-24T12:18:18;23.90;58.50
9537;DHT22;4807;48.024;11.726;2023-06-24T12:21:27;23.80;57.50
9537;DHT22;4807;48.024;11.726;2023-06-24T12:24:35;23.80;57.20
9537;DHT22;4807;48.024;11.726;2023-06-24T12:27:47;23.80;55.80
9537;DHT22;4807;48.024;11.726;2023-06-24T12:30:55;23.50;58.20
9537;DHT22;4807;48.024;11.726;2023-06-24T12:34:04;24.40;59.90
9537;DHT22;4807;48.024;11.726;2023-06-24T12:37:13;24.70;62.30
9537;DHT22;4807;48.024;11.726;2023-06-24T12:40:22;24.80;56.90
9537;DHT22;4807;48.024;11.726;2023-06-24T12:43:32;24.80;58.90
9537;DHT22;4807;48.024;11.726;2023-06-24T12:46:41;25.20;58.60
9537;DHT22;4807;48.024;11.726;2023-06-24T12:49:49;25.20;55.80
9537;DHT22;4807;48.024;11.726;2023-06-24T12:52:59;24.90;55.90
9537;DHT22;4807;48.024;11.726;2023-06-24T12:56:08;24.40;53.60
9537;DHT22;4807;48.024;11.726;2023-06-24T12:59:18;24.10;54.10
9537;DHT22;4807;48.024;11.726;2023-06-24T13:02:27;23.90;57.40
9537;DHT22;4807;48.024;11.726;2023-06-24T13:05:37;23.80;55.10
9537;DHT22;4807;48.024;11.726;2023-06-24T13:08:46;23.70;55.00
9537;DHT22;4807;48.024;11.726;2023-06-24T13:11:54;23.80;57.60
9537;DHT22;4807;48.024;11.726;2023-06-24T13:15:07;24.20;54.80
9537;DHT22;4807;48.024;11.726;2023-06-24T13:18:17;24.20;54.60
9537;DHT22;4807;48.024;11.726;2023-06-24T13:21:26;24.00;52.80
9537;DHT22;4807;48.024;11.726;2023-06-24T13:24:36;23.80;55.10
9537;DHT22;4807;48.024;11.726;2023-06-24T13:27:45;23.80;55.50
9537;DHT22;4807;48.024;11.726;2023-06-24T13:30:55;23.80;54.70
9537;DHT22;4807;48.024;11.726;2023-06-24T13:34:04;23.70;56.40
9537;DHT22;4807;48.024;11.726;2023-06-24T13:37:14;23.50;55.70
9537;DHT22;4807;48.024;11.726;2023-06-24T13:40:24;23.60;55.70
9537;DHT22;4807;48.024;11.726;2023-06-24T13:43:33;23.40;55.50
9537;DHT22;4807;48.024;11.726;2023-06-24T13:46:42;23.50;55.20
9537;DHT22;4807;48.024;11.726;2023-06-24T13:49:51;23.60;56.90
9537;DHT22;4807;48.024;11.726;2023-06-24T13:53:00;23.50;54.10
9537;DHT22;4807;48.024;11.726;2023-06-24T13:56:09;23.60;53.70
9537;DHT22;4807;48.024;11.726;2023-06-24T13:59:17;23.80;54.70
9537;DHT22;4807;48.024;11.726;2023-06-24T14:02:27;24.20;58.20
9537;DHT22;4807;48.024;11.726;2023-06-24T14:05:36;24.20;56.80
9537;DHT22;4807;48.024;11.726;2023-06-24T14:08:44;23.90;56.60
9537;DHT22;4807;48.024;11.726;2023-06-24T14:11:54;23.90;58.60
9537;DHT22;4807;48.024;11.726;2023-06-24T14:15:05;24.40;55.00
9537;DHT22;4807;48.024;11.726;2023-06-24T14:18:15;24.40;54.80
9537;DHT22;4807;48.024;11.726;2023-06-24T14:21:24;24.40;55.20
9537;DHT22;4807;48.024;11.726;2023-06-24T14:24:32;24.20;56.10
9537;DHT22;4807;48.024;11.726;2023-06-24T14:27:41;24.30;56.60
9537;DHT22;4807;48.024;11.726;2023-06-24T14:30:49;24.10;56.40
9537;DHT22;4807;48.024;11.726;2023-06-24T14:33:59;24.10;59.30
9537;DHT22;4807;48.024;11.726;2023-06-24T14:37:07;23.90;58.90
9537;DHT22;4807;48.024;11.726;2023-06-24T14:40:16;23.80;59.40
9537;DHT22;4807;48.024;11.726;2023-06-24T14:43:25;23.70;59.90
9537;DHT22;4807;48.024;11.726;2023-06-24T14:46:34;23.90;60.30
9537;DHT22;4807;48.024;11.726;2023-06-24T14:49:44;24.10;60.00
9537;DHT22;4807;48.024;11.726;2023-06-24T14:52:52;24.50;58.20
9537;DHT22;4807;48.024;11.726;2023-06-24T14:56:01;24.70;57.70
9537;DHT22;4807;48.024;11.726;2023-06-24T14:59:09;24.80;57.10
9537;DHT22;4807;48.024;11.726;2023-06-24T15:02:18;25.10;56.10
9537;DHT22;4807;48.024;11.726;2023-06-24T15:05:28;25.00;56.80
9537;DHT22;4807;48.024;11.726;2023-06-24T15:08:37;25.10;57.40
9537;DHT22;4807;48.024;11.726;2023-06-24T15:11:45;25.30;59.40
9537;DHT22;4807;48.024;11.726;2023-06-24T15:14:53;25.60;57.90
9537;DHT22;4807;48.024;11.726;2023-06-24T15:18:03;26.00;58.00
9537;DHT22;4807;48.024;11.726;2023-06-24T15:21:14;26.30;57.40
9537;DHT22;4807;48.024;11.726;2023-06-24T15:24:42;26.20;57.30
9537;DHT22;4807;48.024;11.726;2023-06-24T15:27:57;25.90;59.10
9537;DHT22;4807;48.024;11.726;2023-06-24T15:31:07;25.60;59.40
9537;DHT22;4807;48.024;11.726;2023-06-24T15:34:16;25.40;57.10
9537;DHT22;4807;48.024;11.726;2023-06-24T15:37:26;25.10;59.20
9537;DHT22;4807;48.024;11.726;2023-06-24T15:40:39;25.00;58.30
9537;DHT22;4807;48.024;11.726;2023-06-24T15:43:50;25.10;58.60
9537;DHT22;4807;48.024;11.726;2023-06-24T15:46:58;25.20;59.40
9537;DHT22;4807;48.024;11.726;2023-06-24T15:50:08;25.30;58.20
9537;DHT22;4807;48.024;11.726;2023-06-24T15:53:18;25.40;57.30
9537;DHT22;4807;48.024;11.726;2023-06-24T15:56:27;25.40;58.50
9537;DHT22;4807;48.024;11.726;2023-06-24T15:59:35;25.50;58.10
9537;DHT22;4807;48.024;11.726;2023-06-24T16:02:45;25.40;59.00
9537;DHT22;4807;48.024;11.726;2023-06-24T16:05:53;25.10;57.70
9537;DHT22;4807;48.024;11.726;2023-06-24T16:09:03;24.60;59.50
9537;DHT22;4807;48.024;11.726;2023-06-24T16:12:12;24.20;58.80
9537;DHT22;4807;48.024;11.726;2023-06-24T16:15:21;23.90;59.20
9537;DHT22;4807;48.024;11.726;2023-06-24T16:18:30;23.80;59.90
9537;DHT22;4807;48.024;11.726;2023-06-24T16:21:38;24.00;58.30
9537;DHT22;4807;48.024;11.726;2023-06-24T16:24:48;23.90;58.20
9537;DHT22;4807;48.024;11.726;2023-06-24T16:27:57;24.00;58.00
9537;DHT22;4807;48.024;11.726;2023-06-24T16:31:05;24.10;58.40
9537;DHT22;4807;48.024;11.726;2023-06-24T16:34:14;24.20;56.00
9537;DHT22;4807;48.024;11.726;2023-06-24T16:37:26;24.30;57.60
9537;DHT22;4807;48.024;11.726;2023-06-24T16:40:37;25.10;57.00
9537;DHT22;4807;48.024;11.726;2023-06-24T16:43:46;24.40;56.10
9537;DHT22;4807;48.024;11.726;2023-06-24T16:46:55;24.60;56.60
9537;DHT22;4807;48.024;11.726;2023-06-24T16:50:05;25.80;56.10
9537;DHT22;4807;48.024;11.726;2023-06-24T16:53:14;28.00;52.70
9537;DHT22;4807;48.024;11.726;2023-06-24T16:56:24;30.60;48.20
9537;DHT22;4807;48.024;11.726;2023-06-24T16:59:33;31.70;44.80
9537;DHT22;4807;48.024;11.726;2023-06-24T17:02:41;31.60;45.20
9537;DHT22;4807;48.024;11.726;2023-06-24T17:05:50;31.40;45.00
9537;DHT22;4807;48.024;11.726;2023-06-24T17:08:59;31.70;45.10
9537;DHT22;4807;48.024;11.726;2023-06-24T17:12:09;32.80;43.90
9537;DHT22;4807;48.024;11.726;2023-06-24T17:15:18;33.80;41.70
9537;DHT22;4807;48.024;11.726;2023-06-24T17:18:27;33.60;40.00
9537;DHT22;4807;48.024;11.726;2023-06-24T17:21:36;32.50;42.10
9537;DHT22;4807;48.024;11.726;2023-06-24T17:24:45;32.40;43.70
9537;DHT22;4807;48.024;11.726;2023-06-24T17:27:56;32.80;41.70
9537;DHT22;4807;48.024;11.726;2023-06-24T17:31:05;32.60;41.20
9537;DHT22;4807;48.024;11.726;2023-06-24T17:34:13;32.50;41.50
9537;DHT22;4807;48.024;11.726;2023-06-24T17:37:22;32.70;41.40
9537;DHT22;4807;48.024;11.726;2023-06-24T17:40:30;31.80;41.70
9537;DHT22;4807;48.024;11.726;2023-06-24T17:43:41;31.70;43.70
9537;DHT22;4807;48.024;11.726;2023-06-24T17:46:49;32.10;42.60
9537;DHT22;4807;48.024;11.726;2023-06-24T17:49:57;32.10;42.60
9537;DHT22;4807;48.024;11.726;2023-06-24T17:53:06;31.50;43.40
9537;DHT22;4807;48.024;11.726;2023-06-24T17:56:15;30.40;45.20
9537;DHT22;4807;48.024;11.726;2023-06-24T17:59:25;29.00;46.20
9537;DHT22;4807;48.024;11.726;2023-06-24T18:02:36;27.70;49.10
9537;DHT22;4807;48.024;11.726;2023-06-24T18:05:45;26.20;53.60
9537;DHT22;4807;48.024;11.726;2023-06-24T18:08:53;25.30;54.60
9537;DHT22;4807;48.024;11.726;2023-06-24T18:12:02;24.50;55.70
9537;DHT22;4807;48.024;11.726;2023-06-24T18:15:13;23.80;57.30
9537;DHT22;4807;48.024;11.726;2023-06-24T18:18:21;23.30;59.30
9537;DHT22;4807;48.024;11.726;2023-06-24T18:21:30;22.80;61.10
9537;DHT22;4807;48.024;11.726;2023-06-24T18:24:38;22.40;65.20
9537;DHT22;4807;48.024;11.726;2023-06-24T18:27:46;22.00;65.30
9537;DHT22;4807;48.024;11.726;2023-06-24T18:30:56;21.90;65.50
9537;DHT22;4807;48.024;11.726;2023-06-24T18:34:05;21.50;65.70
9537;DHT22;4807;48.024;11.726;2023-06-24T18:37:14;21.30;65.60
9537;DHT22;4807;48.024;11.726;2023-06-24T18:40:23;21.10;66.80
9537;DHT22;4807;48.024;11.726;2023-06-24T18:43:32;20.90;67.70
9537;DHT22;4807;48.024;11.726;2023-06-24T18:46:42;20.70;71.70
9537;DHT22;4807;48.024;11.726;2023-06-24T18:49:51;20.50;70.20
9537;DHT22;4807;48.024;11.726;2023-06-24T18:52:59;20.40;71.30
9537;DHT22;4807;48.024;11.726;2023-06-24T18:56:08;20.10;71.00
9537;DHT22;4807;48.024;11.726;2023-06-24T18:59:19;19.90;72.20
9537;DHT22;4807;48.024;11.726;2023-06-24T19:02:29;19.90;71.90
9537;DHT22;4807;48.024;11.726;2023-06-24T19:05:38;19.60;73.70
9537;DHT22;4807;48.024;11.726;2023-06-24T19:08:47;19.30;74.70
9537;DHT22;4807;48.024;11.726;2023-06-24T19:11:59;18.50;75.20
9537;DHT22;4807;48.024;11.726;2023-06-24T19:15:08;18.90;77.90
9537;DHT22;4807;48.024;11.726;2023-06-24T19:18:18;18.70;78.30
9537;DHT22;4807;48.024;11.726;2023-06-24T19:21:27;18.50;78.70
9537;DHT22;4807;48.024;11.726;2023-06-24T19:24:35;18.30;80.60
9537;DHT22;4807;48.024;11.726;2023-06-24T19:27:44;18.30;82.10
9537;DHT22;4807;48.024;11.726;2023-06-24T19:30:52;18.10;82.00
9537;DHT22;4807;48.024;11.726;2023-06-24T19:34:02;18.00;83.60
9537;DHT22;4807;48.024;11.726;2023-06-24T19:37:10;17.80;84.80
9537;DHT22;4807;48.024;11.726;2023-06-24T19:40:19;17.60;86.50
9537;DHT22;4807;48.024;11.726;2023-06-24T19:43:29;17.50;88.30
9537;DHT22;4807;48.024;11.726;2023-06-24T19:46:37;17.30;89.40
9537;DHT22;4807;48.024;11.726;2023-06-24T19:49:52;17.20;90.10
9537;DHT22;4807;48.024;11.726;2023-06-24T19:53:02;17.10;90.50
9537;DHT22;4807;48.024;11.726;2023-06-24T19:56:10;17.00;90.70
9537;DHT22;4807;48.024;11.726;2023-06-24T19:59:18;16.90;91.10
9537;DHT22;4807;48.024;11.726;2023-06-24T20:02:27;16.80;91.20
9537;DHT22;4807;48.024;11.726;2023-06-24T20:05:36;16.60;91.40
9537;DHT22;4807;48.024;11.726;2023-06-24T20:08:45;16.50;91.80
9537;DHT22;4807;48.024;11.726;2023-06-24T20:11:53;16.40;92.00
9537;DHT22;4807;48.024;11.726;2023-06-24T20:15:01;16.40;92.30
9537;DHT22;4807;48.024;11.726;2023-06-24T20:18:10;16.30;92.70
9537;DHT22;4807;48.024;11.726;2023-06-24T20:21:20;16.20;93.20
9537;DHT22;4807;48.024;11.726;2023-06-24T20:24:28;16.20;93.50